createdAt,value
2019-01-24T00:00:14.988Z,55.95
2019-01-24T00:01:18.643Z,55.94
2019-01-24T00:02:22.250Z,55.91
2019-01-24T00:03:25.773Z,55.97
2019-01-24T00:04:29.265Z,56.03
2019-01-24T00:05:32.804Z,56.18
2019-01-24T00:06:36.447Z,56.31
2019-01-24T00:07:39.956Z,56.31
2019-01-24T00:08:43.486Z,56.31
2019-01-24T00:09:46.988Z,56.17
2019-01-24T00:10:50.621Z,56.25
2019-01-24T00:11:54.111Z,56.20
2019-01-24T00:12:57.672Z,56.26
2019-01-24T00:14:01.321Z,56.26
2019-01-24T00:15:07.639Z,56.36
2019-01-24T00:16:11.214Z,56.45
2019-01-24T00:17:14.755Z,56.44
2019-01-24T00:18:18.379Z,56.47
2019-01-24T00:19:21.915Z,56.54
2019-01-24T00:20:25.580Z,56.71
2019-01-24T00:21:29.144Z,56.80
2019-01-24T00:22:32.631Z,56.69
2019-01-24T00:23:36.195Z,56.65
2019-01-24T00:24:39.721Z,56.59
2019-01-24T00:25:43.199Z,56.66
2019-01-24T00:26:46.756Z,56.73
2019-01-24T00:27:50.438Z,56.73
2019-01-24T00:28:53.884Z,56.77
2019-01-24T00:29:57.410Z,56.61
2019-01-24T00:31:00.914Z,56.61
2019-01-24T00:32:04.477Z,56.68
2019-01-24T00:33:08.106Z,56.81
2019-01-24T00:34:11.606Z,56.80
2019-01-24T00:35:15.546Z,56.84
2019-01-24T00:36:19.169Z,56.89
2019-01-24T00:37:22.666Z,56.93
2019-01-24T00:38:26.228Z,56.90
2019-01-24T00:39:29.773Z,56.90
2019-01-24T00:40:33.404Z,56.95
2019-01-24T00:41:37.007Z,56.98
2019-01-24T00:42:40.545Z,57.03
2019-01-24T00:43:44.154Z,57.01
2019-01-24T00:44:47.618Z,57.14
2019-01-24T00:45:51.373Z,57.11
2019-01-24T00:46:54.926Z,57.17
2019-01-24T00:47:58.484Z,57.14
2019-01-24T00:49:02.028Z,57.20
2019-01-24T00:50:08.533Z,57.29
2019-01-24T00:51:12.059Z,57.32
2019-01-24T00:52:15.612Z,57.39
2019-01-24T00:53:19.102Z,57.39
2019-01-24T00:54:22.594Z,57.42
2019-01-24T00:55:26.166Z,57.45
2019-01-24T00:56:29.681Z,57.41
2019-01-24T00:57:33.171Z,57.46
2019-01-24T00:58:36.736Z,57.49
2019-01-24T00:59:40.290Z,57.50
2019-01-24T01:00:43.913Z,57.50
2019-01-24T01:01:47.504Z,57.56
2019-01-24T01:02:51.230Z,57.61
2019-01-24T01:03:54.716Z,57.64
2019-01-24T01:04:58.260Z,57.72
2019-01-24T01:06:02.219Z,57.77
2019-01-24T01:07:06.237Z,57.80
2019-01-24T01:08:09.846Z,57.81
2019-01-24T01:09:13.408Z,57.83
2019-01-24T01:10:17.342Z,57.95
2019-01-24T01:11:20.897Z,57.92
2019-01-24T01:12:24.490Z,57.89
2019-01-24T01:13:27.976Z,57.96
2019-01-24T01:14:31.461Z,58.01
2019-01-24T01:15:35.082Z,58.04
2019-01-24T01:16:38.640Z,58.17
2019-01-24T01:17:42.271Z,58.25
2019-01-24T01:18:45.897Z,58.32
2019-01-24T01:19:49.470Z,58.37
2019-01-24T01:20:54.658Z,58.31
2019-01-24T01:21:58.245Z,58.32
2019-01-24T01:23:01.927Z,58.34
2019-01-24T01:24:05.640Z,58.39
2019-01-24T01:25:11.577Z,58.52
2019-01-24T01:26:15.050Z,58.52
2019-01-24T01:27:18.662Z,58.55
2019-01-24T01:28:22.268Z,58.50
2019-01-24T01:29:25.741Z,58.55
2019-01-24T01:30:29.309Z,58.67
2019-01-24T01:31:32.866Z,58.67
2019-01-24T01:32:36.444Z,58.65
2019-01-24T01:33:39.948Z,58.70
2019-01-24T01:34:43.499Z,58.74
2019-01-24T01:35:47.040Z,58.65
2019-01-24T01:36:50.617Z,58.65
2019-01-24T01:37:54.271Z,58.71
2019-01-24T01:38:57.773Z,58.73
2019-01-24T01:40:01.344Z,58.74
2019-01-24T01:41:05.150Z,58.74
2019-01-24T01:42:08.651Z,58.73
2019-01-24T01:43:12.297Z,58.72
2019-01-24T01:44:15.877Z,58.72
2019-01-24T01:45:21.361Z,58.71
2019-01-24T01:46:24.822Z,58.72
2019-01-24T01:47:28.395Z,58.83
2019-01-24T01:48:31.931Z,59.01
2019-01-24T01:49:35.472Z,59.18
2019-01-24T01:50:39.056Z,59.18
2019-01-24T01:51:42.593Z,59.07
2019-01-24T01:52:46.230Z,59.00
2019-01-24T01:53:49.808Z,58.85
2019-01-24T01:54:53.343Z,58.81
2019-01-24T01:55:56.845Z,58.86
2019-01-24T01:57:00.404Z,59.08
2019-01-24T01:58:04.117Z,59.25
2019-01-24T01:59:07.650Z,59.43
2019-01-24T02:00:20.639Z,59.52
2019-01-24T02:01:24.102Z,59.50
2019-01-24T02:02:27.605Z,59.50
2019-01-24T02:03:31.167Z,59.48
2019-01-24T02:04:34.768Z,59.51
2019-01-24T02:05:38.263Z,59.71
2019-01-24T02:06:41.818Z,59.73
2019-01-24T02:07:45.387Z,59.75
2019-01-24T02:08:48.931Z,59.71
2019-01-24T02:09:52.495Z,59.75
2019-01-24T02:10:56.083Z,59.84
2019-01-24T02:11:59.687Z,59.80
2019-01-24T02:13:03.192Z,59.88
2019-01-24T02:14:06.968Z,59.91
2019-01-24T02:15:12.260Z,59.93
2019-01-24T02:16:15.769Z,59.99
2019-01-24T02:17:19.240Z,59.99
2019-01-24T02:18:22.786Z,60.06
2019-01-24T02:19:26.288Z,60.06
2019-01-24T02:20:29.847Z,60.04
2019-01-24T02:21:33.777Z,59.99
2019-01-24T02:22:37.609Z,59.92
2019-01-24T02:23:41.125Z,59.88
2019-01-24T02:24:44.775Z,59.84
2019-01-24T02:25:48.450Z,59.87
2019-01-24T02:26:51.902Z,59.79
2019-01-24T02:27:55.474Z,59.79
2019-01-24T02:28:59.049Z,59.75
2019-01-24T02:30:02.575Z,59.64
2019-01-24T02:31:06.216Z,59.57
2019-01-24T02:32:09.838Z,59.66
2019-01-24T02:33:13.409Z,59.77
2019-01-24T02:34:16.889Z,59.85
2019-01-24T02:35:20.508Z,59.95
2019-01-24T02:36:24.049Z,60.04
2019-01-24T02:37:27.534Z,60.12
2019-01-24T02:38:31.110Z,60.17
2019-01-24T02:39:34.644Z,60.21
2019-01-24T02:40:38.168Z,60.21
2019-01-24T02:41:41.700Z,60.23
2019-01-24T02:42:45.330Z,60.40
2019-01-24T02:43:48.837Z,60.60
2019-01-24T02:44:52.331Z,60.65
2019-01-24T02:45:55.950Z,60.70
2019-01-24T02:46:59.635Z,60.56
2019-01-24T02:48:03.085Z,60.43
2019-01-24T02:49:06.689Z,60.38
2019-01-24T02:50:13.418Z,60.38
2019-01-24T02:51:16.919Z,60.33
2019-01-24T02:52:20.511Z,60.31
2019-01-24T02:53:24.217Z,60.30
2019-01-24T02:54:27.895Z,60.27
2019-01-24T02:55:31.891Z,60.35
2019-01-24T02:56:35.399Z,60.74
2019-01-24T02:57:38.897Z,61.06
2019-01-24T02:58:42.384Z,61.06
2019-01-24T02:59:45.963Z,61.22
2019-01-24T03:00:49.582Z,61.28
2019-01-24T03:01:53.103Z,61.10
2019-01-24T03:02:56.579Z,60.90
2019-01-24T03:04:00.265Z,60.79
2019-01-24T03:05:05.527Z,60.87
2019-01-24T03:06:09.189Z,61.05
2019-01-24T03:07:12.739Z,61.12
2019-01-24T03:08:16.367Z,61.26
2019-01-24T03:09:19.930Z,61.22
2019-01-24T03:10:23.420Z,61.42
2019-01-24T03:11:26.941Z,61.36
2019-01-24T03:12:30.463Z,61.30
2019-01-24T03:13:33.999Z,61.32
2019-01-24T03:14:37.531Z,61.33
2019-01-24T03:15:41.025Z,61.29
2019-01-24T03:16:44.589Z,61.31
2019-01-24T03:17:48.244Z,61.34
2019-01-24T03:18:52.302Z,61.33
2019-01-24T03:19:55.783Z,61.31
2019-01-24T03:20:59.283Z,61.29
2019-01-24T03:22:02.805Z,61.31
2019-01-24T03:23:06.451Z,61.37
2019-01-24T03:24:09.952Z,61.29
2019-01-24T03:25:15.712Z,61.24
2019-01-24T03:26:19.353Z,61.24
2019-01-24T03:27:23.000Z,61.19
2019-01-24T03:28:26.515Z,61.26
2019-01-24T03:29:30.014Z,61.34
2019-01-24T03:30:33.567Z,61.37
2019-01-24T03:31:37.153Z,61.32
2019-01-24T03:32:40.676Z,61.31
2019-01-24T03:33:44.245Z,61.33
2019-01-24T03:34:47.887Z,61.39
2019-01-24T03:35:51.449Z,61.46
2019-01-24T03:36:54.951Z,61.37
2019-01-24T03:37:58.452Z,61.51
2019-01-24T03:39:02.006Z,61.58
2019-01-24T03:40:08.917Z,61.49
2019-01-24T03:41:12.404Z,61.42
2019-01-24T03:42:15.882Z,61.04
2019-01-24T03:43:19.437Z,61.00
2019-01-24T03:44:22.960Z,61.41
2019-01-24T03:45:26.535Z,61.19
2019-01-24T03:46:30.111Z,61.09
2019-01-24T03:47:33.632Z,61.19
2019-01-24T03:48:37.180Z,61.09
2019-01-24T03:49:40.706Z,60.42
2019-01-24T03:50:44.331Z,60.22
2019-01-24T03:51:47.812Z,59.99
2019-01-24T03:52:51.695Z,59.97
2019-01-24T03:53:55.249Z,60.00
2019-01-24T03:54:58.874Z,59.85
2019-01-24T03:56:02.607Z,59.83
2019-01-24T03:57:06.145Z,59.62
2019-01-24T03:58:09.889Z,59.55
2019-01-24T03:59:13.486Z,59.26
2019-01-24T04:00:22.802Z,59.04
2019-01-24T04:01:26.301Z,58.92
2019-01-24T04:02:29.913Z,58.56
2019-01-24T04:03:33.561Z,58.45
2019-01-24T04:04:37.145Z,58.32
2019-01-24T04:05:40.780Z,58.17
2019-01-24T04:06:44.324Z,57.85
2019-01-24T04:07:47.801Z,57.63
2019-01-24T04:08:51.377Z,57.28
2019-01-24T04:09:54.955Z,57.16
2019-01-24T04:10:58.527Z,56.93
2019-01-24T04:12:02.015Z,56.56
2019-01-24T04:13:05.585Z,56.45
2019-01-24T04:14:09.092Z,56.22
2019-01-24T04:15:15.431Z,56.14
2019-01-24T04:16:18.995Z,55.70
2019-01-24T04:17:22.470Z,55.54
2019-01-24T04:18:26.166Z,55.34
2019-01-24T04:19:29.623Z,55.22
2019-01-24T04:20:33.191Z,54.96
2019-01-24T04:21:36.724Z,54.98
2019-01-24T04:22:40.263Z,54.96
2019-01-24T04:23:43.759Z,54.83
2019-01-24T04:24:47.248Z,54.72
2019-01-24T04:25:50.719Z,54.74
2019-01-24T04:26:54.337Z,54.60
2019-01-24T04:27:57.798Z,54.40
2019-01-24T04:29:01.313Z,54.21
2019-01-24T04:30:07.915Z,54.29
2019-01-24T04:31:11.459Z,54.28
2019-01-24T04:32:15.059Z,54.11
2019-01-24T04:33:18.527Z,54.22
2019-01-24T04:34:22.005Z,54.26
2019-01-24T04:35:25.638Z,54.18
2019-01-24T04:36:29.247Z,54.16
2019-01-24T04:37:32.775Z,54.21
2019-01-24T04:38:36.297Z,54.30
2019-01-24T04:39:39.820Z,54.38
2019-01-24T04:40:43.397Z,54.52
2019-01-24T04:41:47.116Z,54.32
2019-01-24T04:42:50.754Z,54.36
2019-01-24T04:43:56.535Z,54.12
2019-01-24T04:45:00.010Z,54.15
2019-01-24T04:46:03.510Z,54.06
2019-01-24T04:47:07.006Z,54.14
2019-01-24T04:48:10.530Z,54.35
2019-01-24T04:49:14.162Z,54.12
2019-01-24T04:50:18.519Z,54.04
2019-01-24T04:51:22.015Z,54.21
2019-01-24T04:52:25.512Z,54.27
2019-01-24T04:53:29.077Z,54.30
2019-01-24T04:54:32.582Z,54.19
2019-01-24T04:55:36.134Z,54.00
2019-01-24T04:56:39.724Z,54.07
2019-01-24T04:57:43.227Z,54.10
2019-01-24T04:58:46.765Z,54.20
2019-01-24T04:59:50.271Z,54.23
2019-01-24T05:00:53.742Z,54.27
2019-01-24T05:01:57.314Z,54.30
2019-01-24T05:03:00.795Z,54.30
2019-01-24T05:04:04.527Z,54.31
2019-01-24T05:05:08.109Z,54.35
2019-01-24T05:06:11.617Z,54.27
2019-01-24T05:07:15.199Z,54.47
2019-01-24T05:08:18.715Z,54.52
2019-01-24T05:09:22.232Z,54.50
2019-01-24T05:10:25.878Z,54.38
2019-01-24T05:11:29.431Z,54.49
2019-01-24T05:12:32.906Z,54.46
2019-01-24T05:13:36.479Z,54.57
2019-01-24T05:14:40.013Z,54.61
2019-01-24T05:15:43.501Z,54.88
2019-01-24T05:16:47.094Z,54.90
2019-01-24T05:17:50.731Z,55.15
2019-01-24T05:18:54.296Z,55.26
2019-01-24T05:19:57.870Z,55.36
2019-01-24T05:21:01.492Z,55.35
2019-01-24T05:22:05.194Z,55.34
2019-01-24T05:23:08.802Z,55.37
2019-01-24T05:24:12.302Z,55.40
2019-01-24T05:25:17.248Z,55.42
2019-01-24T05:26:20.829Z,55.40
2019-01-24T05:27:24.335Z,55.33
2019-01-24T05:28:27.886Z,55.22
2019-01-24T05:29:31.373Z,55.46
2019-01-24T05:30:34.973Z,55.48
2019-01-24T05:31:38.466Z,55.47
2019-01-24T05:32:42.028Z,55.64
2019-01-24T05:33:45.957Z,55.40
2019-01-24T05:34:49.529Z,55.06
2019-01-24T05:35:53.611Z,55.03
2019-01-24T05:37:04.847Z,54.99
2019-01-24T05:38:08.840Z,54.81
2019-01-24T05:39:12.553Z,54.80
2019-01-24T05:40:16.346Z,54.78
2019-01-24T05:41:19.885Z,54.76
2019-01-24T05:42:23.440Z,54.86
2019-01-24T05:43:26.891Z,53.84
2019-01-24T05:44:30.525Z,54.84
2019-01-24T05:45:34.055Z,54.93
2019-01-24T05:46:37.579Z,52.64
2019-01-24T05:47:41.236Z,53.42
2019-01-24T05:48:44.829Z,53.75
2019-01-24T05:49:48.383Z,53.99
2019-01-24T05:50:53.586Z,53.77
2019-01-24T05:51:57.134Z,51.67
2019-01-24T05:53:00.637Z,51.80
2019-01-24T05:54:04.384Z,52.07
2019-01-24T05:55:10.100Z,52.63
2019-01-24T05:56:13.598Z,52.66
2019-01-24T05:57:17.270Z,52.14
2019-01-24T05:58:20.752Z,52.20
2019-01-24T05:59:24.318Z,51.34
2019-01-24T06:00:37.998Z,50.40
2019-01-24T06:01:41.676Z,49.20
2019-01-24T06:02:45.428Z,48.53
2019-01-24T06:03:49.027Z,48.24
2019-01-24T06:04:52.558Z,48.89
2019-01-24T06:05:56.146Z,49.04
2019-01-24T06:06:59.802Z,49.13
2019-01-24T06:08:03.321Z,49.16
2019-01-24T06:09:07.837Z,49.19
2019-01-24T06:10:13.969Z,49.33
2019-01-24T06:11:17.505Z,49.41
2019-01-24T06:12:21.178Z,49.49
2019-01-24T06:13:24.694Z,49.61
2019-01-24T06:14:28.180Z,49.75
2019-01-24T06:15:31.822Z,50.05
2019-01-24T06:16:35.351Z,49.92
2019-01-24T06:17:38.859Z,49.55
2019-01-24T06:18:42.404Z,49.56
2019-01-24T06:19:45.989Z,49.25
2019-01-24T06:20:49.481Z,48.97
2019-01-24T06:21:53.044Z,48.69
2019-01-24T06:22:56.626Z,48.60
2019-01-24T06:24:00.217Z,48.14
2019-01-24T06:25:05.264Z,48.25
2019-01-24T06:26:08.842Z,47.98
2019-01-24T06:27:12.342Z,47.90
2019-01-24T06:28:15.922Z,47.86
2019-01-24T06:29:19.586Z,47.85
2019-01-24T06:30:23.722Z,47.78
2019-01-24T06:31:27.311Z,47.71
2019-01-24T06:32:30.865Z,46.62
2019-01-24T06:33:34.362Z,45.65
2019-01-24T06:34:37.892Z,44.83
2019-01-24T06:35:41.677Z,44.19
2019-01-24T06:36:45.178Z,43.78
2019-01-24T06:37:48.880Z,43.26
2019-01-24T06:38:52.373Z,43.24
2019-01-24T06:39:55.980Z,42.39
2019-01-24T06:40:59.536Z,43.17
2019-01-24T06:42:03.118Z,43.08
2019-01-24T06:43:06.693Z,42.66
2019-01-24T06:44:10.326Z,42.02
2019-01-24T06:45:16.748Z,41.44
2019-01-24T06:46:20.302Z,41.43
2019-01-24T06:47:23.878Z,42.12
2019-01-24T06:48:27.497Z,42.40
2019-01-24T06:49:30.942Z,42.17
2019-01-24T06:50:34.479Z,42.70
2019-01-24T06:51:37.974Z,41.98
2019-01-24T06:52:41.677Z,43.82
2019-01-24T06:53:45.140Z,44.06
2019-01-24T06:54:48.711Z,44.41
2019-01-24T06:55:52.328Z,44.87
2019-01-24T06:56:55.962Z,45.96
2019-01-24T06:57:59.529Z,48.33
2019-01-24T06:59:03.038Z,48.50
2019-01-24T07:00:20.396Z,47.07
2019-01-24T07:01:23.948Z,45.92
2019-01-24T07:02:27.512Z,45.06
2019-01-24T07:03:31.044Z,44.25
2019-01-24T07:04:34.545Z,44.05
2019-01-24T07:05:38.150Z,43.22
2019-01-24T07:06:41.734Z,42.59
2019-01-24T07:07:45.379Z,42.65
2019-01-24T07:08:48.863Z,43.22
2019-01-24T07:09:52.453Z,43.76
2019-01-24T07:10:56.105Z,44.03
2019-01-24T07:11:59.716Z,44.19
2019-01-24T07:13:03.984Z,44.23
2019-01-24T07:14:07.787Z,44.42
2019-01-24T07:15:14.305Z,44.58
2019-01-24T07:16:17.872Z,44.77
2019-01-24T07:17:21.410Z,44.82
2019-01-24T07:18:25.005Z,44.88
2019-01-24T07:19:28.529Z,44.87
2019-01-24T07:20:32.108Z,44.93
2019-01-24T07:21:35.591Z,45.02
2019-01-24T07:22:39.636Z,45.21
2019-01-24T07:23:43.105Z,45.26
2019-01-24T07:24:46.669Z,45.38
2019-01-24T07:25:50.165Z,45.48
2019-01-24T07:26:53.663Z,45.64
2019-01-24T07:27:57.250Z,45.78
2019-01-24T07:29:00.780Z,45.88
2019-01-24T07:30:07.313Z,45.98
2019-01-24T07:31:10.848Z,46.11
2019-01-24T07:32:14.400Z,46.24
2019-01-24T07:33:17.924Z,46.31
2019-01-24T07:34:21.507Z,46.50
2019-01-24T07:35:25.057Z,46.59
2019-01-24T07:36:28.719Z,46.69
2019-01-24T07:37:32.228Z,46.76
2019-01-24T07:38:35.808Z,46.86
2019-01-24T07:39:39.380Z,46.90
2019-01-24T07:40:42.909Z,47.03
2019-01-24T07:41:46.512Z,47.15
2019-01-24T07:42:50.555Z,47.19
2019-01-24T07:43:54.125Z,47.33
2019-01-24T07:44:57.615Z,47.38
2019-01-24T07:46:01.190Z,47.45
2019-01-24T07:47:04.818Z,47.57
2019-01-24T07:48:08.463Z,47.65
2019-01-24T07:49:11.970Z,47.77
2019-01-24T07:50:15.615Z,47.86
2019-01-24T07:51:19.158Z,48.02
2019-01-24T07:52:22.676Z,48.06
2019-01-24T07:53:26.191Z,48.22
2019-01-24T07:54:29.709Z,48.32
2019-01-24T07:55:33.317Z,48.47
2019-01-24T07:56:36.906Z,48.58
2019-01-24T07:57:42.537Z,48.67
2019-01-24T07:58:46.116Z,48.73
2019-01-24T07:59:49.647Z,48.74
2019-01-24T08:00:54.759Z,48.79
2019-01-24T08:01:58.286Z,48.83
2019-01-24T08:03:01.878Z,48.87
2019-01-24T08:04:05.609Z,48.91
2019-01-24T08:05:11.543Z,48.93
2019-01-24T08:06:15.138Z,49.05
2019-01-24T08:07:18.689Z,49.08
2019-01-24T08:08:22.272Z,49.18
2019-01-24T08:09:25.856Z,49.24
2019-01-24T08:10:29.521Z,49.29
2019-01-24T08:11:33.104Z,49.41
2019-01-24T08:12:36.666Z,49.46
2019-01-24T08:13:40.188Z,49.55
2019-01-24T08:14:43.818Z,49.64
2019-01-24T08:15:47.503Z,49.72
2019-01-24T08:16:51.025Z,49.79
2019-01-24T08:17:54.671Z,49.90
2019-01-24T08:18:58.167Z,49.95
2019-01-24T08:20:01.753Z,50.00
2019-01-24T08:21:05.507Z,50.00
2019-01-24T08:22:09.109Z,50.00
2019-01-24T08:23:12.593Z,50.00
2019-01-24T08:24:16.099Z,50.01
2019-01-24T08:25:19.880Z,50.07
2019-01-24T08:26:23.456Z,50.07
2019-01-24T08:27:26.997Z,50.08
2019-01-24T08:28:30.603Z,50.08
2019-01-24T08:29:34.221Z,50.13
2019-01-24T08:30:37.825Z,50.18
2019-01-24T08:31:41.322Z,50.21
2019-01-24T08:32:45.023Z,50.29
2019-01-24T08:33:48.537Z,50.37
2019-01-24T08:34:52.168Z,50.40
2019-01-24T08:35:55.730Z,50.49
2019-01-24T08:36:59.270Z,50.52
2019-01-24T08:38:03.020Z,50.58
2019-01-24T08:39:08.546Z,50.65
2019-01-24T08:40:17.590Z,50.69
2019-01-24T08:41:21.206Z,50.74
2019-01-24T08:42:24.714Z,50.72
2019-01-24T08:43:28.274Z,50.74
2019-01-24T08:44:31.859Z,50.74
2019-01-24T08:45:35.410Z,50.71
2019-01-24T08:46:38.966Z,50.69
2019-01-24T08:47:42.554Z,50.72
2019-01-24T08:48:46.038Z,50.71
2019-01-24T08:49:49.553Z,50.76
2019-01-24T08:50:54.727Z,50.78
2019-01-24T08:51:58.275Z,50.83
2019-01-24T08:53:01.794Z,50.85
2019-01-24T08:54:05.571Z,50.90
2019-01-24T08:55:12.127Z,50.92
2019-01-24T08:56:15.607Z,50.96
2019-01-24T08:57:19.228Z,51.02
2019-01-24T08:58:22.748Z,51.06
2019-01-24T08:59:29.755Z,51.12
2019-01-24T09:00:31.570Z,51.16
2019-01-24T09:01:35.101Z,51.20
2019-01-24T09:02:38.604Z,51.24
2019-01-24T09:03:43.110Z,51.28
2019-01-24T09:04:46.622Z,51.31
2019-01-24T09:05:50.132Z,51.35
2019-01-24T09:06:53.623Z,51.38
2019-01-24T09:07:57.385Z,51.42
2019-01-24T09:09:00.967Z,51.46
2019-01-24T09:10:07.718Z,51.43
2019-01-24T09:11:11.201Z,51.43
2019-01-24T09:12:14.767Z,51.41
2019-01-24T09:13:18.361Z,51.39
2019-01-24T09:14:21.916Z,51.39
2019-01-24T09:15:25.742Z,51.39
2019-01-24T09:16:29.283Z,51.38
2019-01-24T09:17:32.852Z,51.42
2019-01-24T09:18:36.373Z,51.43
2019-01-24T09:19:39.896Z,51.42
2019-01-24T09:20:43.442Z,51.46
2019-01-24T09:21:46.957Z,51.46
2019-01-24T09:22:55.219Z,51.48
2019-01-24T09:23:55.857Z,51.52
2019-01-24T09:24:59.361Z,51.55
2019-01-24T09:26:02.928Z,51.57
2019-01-24T09:27:06.552Z,51.62
2019-01-24T09:28:14.789Z,51.64
2019-01-24T09:29:15.573Z,51.61
2019-01-24T09:30:24.793Z,51.57
2019-01-24T09:31:28.334Z,51.56
2019-01-24T09:32:31.814Z,51.52
2019-01-24T09:33:35.307Z,51.43
2019-01-24T09:34:38.999Z,51.40
2019-01-24T09:35:42.632Z,51.37
2019-01-24T09:36:46.222Z,51.33
2019-01-24T09:37:50.587Z,51.32
2019-01-24T09:38:54.152Z,51.32
2019-01-24T09:39:57.676Z,51.34
2019-01-24T09:41:01.241Z,51.38
2019-01-24T09:42:04.882Z,51.39
2019-01-24T09:43:08.450Z,51.40
2019-01-24T09:44:12.010Z,51.44
2019-01-24T09:45:20.966Z,51.47
2019-01-24T09:46:24.482Z,51.50
2019-01-24T09:47:27.958Z,51.52
2019-01-24T09:48:31.534Z,51.50
2019-01-24T09:49:35.031Z,51.54
2019-01-24T09:50:38.537Z,51.51
2019-01-24T09:51:42.052Z,51.45
2019-01-24T09:52:45.615Z,51.41
2019-01-24T09:53:49.111Z,51.36
2019-01-24T09:54:52.623Z,51.33
2019-01-24T09:55:56.212Z,51.31
2019-01-24T09:56:59.795Z,51.30
2019-01-24T09:58:03.790Z,51.28
2019-01-24T09:59:07.521Z,51.31
2019-01-24T10:00:28.074Z,51.31
2019-01-24T10:01:31.631Z,51.32
2019-01-24T10:02:35.207Z,51.34
2019-01-24T10:03:38.789Z,51.37
2019-01-24T10:04:42.285Z,51.41
2019-01-24T10:05:45.785Z,51.43
2019-01-24T10:06:50.622Z,51.48
2019-01-24T10:07:54.468Z,51.49
2019-01-24T10:08:57.970Z,51.51
2019-01-24T10:10:01.453Z,51.51
2019-01-24T10:11:05.169Z,51.51
2019-01-24T10:12:08.793Z,51.45
2019-01-24T10:13:12.343Z,51.42
2019-01-24T10:14:15.921Z,51.33
2019-01-24T10:15:20.561Z,51.29
2019-01-24T10:16:24.198Z,51.23
2019-01-24T10:17:27.817Z,51.24
2019-01-24T10:18:31.406Z,51.17
2019-01-24T10:19:34.956Z,51.17
2019-01-24T10:20:38.528Z,51.20
2019-01-24T10:21:42.084Z,51.24
2019-01-24T10:22:45.851Z,51.24
2019-01-24T10:23:49.359Z,51.26
2019-01-24T10:24:52.985Z,51.30
2019-01-24T10:25:56.519Z,51.37
2019-01-24T10:27:00.099Z,51.37
2019-01-24T10:28:03.850Z,51.42
2019-01-24T10:29:07.434Z,51.47
2019-01-24T10:30:14.457Z,51.49
2019-01-24T10:31:18.029Z,51.47
2019-01-24T10:32:21.623Z,51.41
2019-01-24T10:33:25.115Z,51.30
2019-01-24T10:34:28.768Z,51.21
2019-01-24T10:35:32.325Z,51.21
2019-01-24T10:36:35.818Z,51.16
2019-01-24T10:37:39.468Z,51.12
2019-01-24T10:38:42.956Z,51.13
2019-01-24T10:39:46.530Z,51.10
2019-01-24T10:40:50.158Z,51.11
2019-01-24T10:41:53.633Z,51.14
2019-01-24T10:42:57.393Z,51.20
2019-01-24T10:44:00.873Z,51.25
2019-01-24T10:45:06.994Z,51.30
2019-01-24T10:46:10.633Z,51.36
2019-01-24T10:47:14.177Z,51.39
2019-01-24T10:48:17.777Z,51.40
2019-01-24T10:49:21.409Z,51.45
2019-01-24T10:50:28.903Z,51.47
2019-01-24T10:51:32.414Z,51.47
2019-01-24T10:52:35.899Z,51.40
2019-01-24T10:53:39.475Z,51.32
2019-01-24T10:54:43.049Z,51.26
2019-01-24T10:55:46.640Z,51.23
2019-01-24T10:56:50.151Z,51.21
2019-01-24T10:57:55.503Z,51.15
2019-01-24T10:58:59.143Z,51.19
2019-01-24T11:00:02.861Z,51.16
2019-01-24T11:01:06.654Z,51.17
2019-01-24T11:02:10.781Z,51.18
2019-01-24T11:03:14.532Z,51.19
2019-01-24T11:04:18.037Z,51.21
2019-01-24T11:05:21.609Z,51.25
2019-01-24T11:06:25.194Z,51.31
2019-01-24T11:07:28.866Z,51.33
2019-01-24T11:08:32.410Z,51.39
2019-01-24T11:09:35.913Z,51.42
2019-01-24T11:10:39.533Z,51.44
2019-01-24T11:11:43.046Z,51.44
2019-01-24T11:12:46.973Z,51.39
2019-01-24T11:13:50.612Z,51.29
2019-01-24T11:14:54.155Z,51.26
2019-01-24T11:15:57.713Z,51.20
2019-01-24T11:17:01.236Z,51.15
2019-01-24T11:18:06.572Z,51.12
2019-01-24T11:19:10.199Z,51.09
2019-01-24T11:20:16.459Z,51.06
2019-01-24T11:21:20.051Z,51.09
2019-01-24T11:22:23.605Z,51.14
2019-01-24T11:23:27.135Z,51.12
2019-01-24T11:24:30.737Z,51.16
2019-01-24T11:25:34.296Z,51.21
2019-01-24T11:26:37.842Z,51.25
2019-01-24T11:27:41.410Z,51.29
2019-01-24T11:28:44.937Z,51.34
2019-01-24T11:29:48.496Z,51.38
2019-01-24T11:30:53.144Z,51.43
2019-01-24T11:31:56.693Z,51.39
2019-01-24T11:33:00.437Z,51.38
2019-01-24T11:34:04.334Z,51.29
2019-01-24T11:35:11.114Z,51.19
2019-01-24T11:36:14.686Z,51.17
2019-01-24T11:37:18.227Z,51.16
2019-01-24T11:38:21.804Z,51.12
2019-01-24T11:39:25.410Z,51.02
2019-01-24T11:40:29.194Z,51.00
2019-01-24T11:41:32.841Z,51.03
2019-01-24T11:42:36.435Z,50.98
2019-01-24T11:43:40.004Z,51.04
2019-01-24T11:44:43.489Z,51.08
2019-01-24T11:45:47.058Z,51.17
2019-01-24T11:46:50.650Z,51.18
2019-01-24T11:47:54.217Z,51.23
2019-01-24T11:48:57.720Z,51.26
2019-01-24T11:50:01.184Z,51.30
2019-01-24T11:51:04.818Z,51.31
2019-01-24T11:52:08.354Z,51.28
2019-01-24T11:53:11.849Z,51.23
2019-01-24T11:54:15.395Z,51.23
2019-01-24T11:55:20.824Z,51.20
2019-01-24T11:56:24.384Z,51.12
2019-01-24T11:57:27.895Z,51.07
2019-01-24T11:58:31.414Z,51.00
2019-01-24T11:59:34.901Z,50.96
2019-01-24T12:00:41.040Z,50.97
2019-01-24T12:01:44.689Z,50.94
2019-01-24T12:02:48.404Z,50.97
2019-01-24T12:03:51.913Z,51.03
2019-01-24T12:04:55.485Z,51.06
2019-01-24T12:05:58.988Z,51.08
2019-01-24T12:07:04.178Z,51.15
2019-01-24T12:08:08.348Z,51.14
2019-01-24T12:09:12.131Z,51.19
2019-01-24T12:10:18.428Z,51.25
2019-01-24T12:11:22.001Z,51.25
2019-01-24T12:12:25.490Z,51.19
2019-01-24T12:13:29.002Z,51.15
2019-01-24T12:14:32.498Z,51.13
2019-01-24T12:15:36.073Z,51.08
2019-01-24T12:16:39.575Z,51.04
2019-01-24T12:17:43.211Z,50.94
2019-01-24T12:18:46.717Z,50.88
2019-01-24T12:19:50.223Z,50.86
2019-01-24T12:20:56.148Z,50.86
2019-01-24T12:21:59.714Z,50.91
2019-01-24T12:23:03.282Z,50.89
2019-01-24T12:24:06.862Z,50.93
2019-01-24T12:25:11.191Z,50.98
2019-01-24T12:26:14.677Z,51.00
2019-01-24T12:27:18.161Z,51.06
2019-01-24T12:28:21.688Z,51.13
2019-01-24T12:29:25.195Z,51.18
2019-01-24T12:30:33.576Z,51.23
2019-01-24T12:31:37.168Z,51.20
2019-01-24T12:32:40.628Z,51.21
2019-01-24T12:33:44.194Z,51.17
2019-01-24T12:34:47.733Z,51.08
2019-01-24T12:35:51.391Z,51.03
2019-01-24T12:36:54.946Z,50.96
2019-01-24T12:37:58.667Z,50.89
2019-01-24T12:39:02.223Z,50.90
2019-01-24T12:40:08.624Z,50.87
2019-01-24T12:41:12.182Z,50.85
2019-01-24T12:42:15.843Z,50.89
2019-01-24T12:43:19.503Z,50.92
2019-01-24T12:44:23.091Z,50.91
2019-01-24T12:45:31.922Z,50.96
2019-01-24T12:46:35.427Z,51.01
2019-01-24T12:47:39.004Z,51.03
2019-01-24T12:48:42.557Z,51.06
2019-01-24T12:49:46.110Z,51.12
2019-01-24T12:50:49.723Z,51.16
2019-01-24T12:51:53.215Z,51.16
2019-01-24T12:52:56.911Z,51.15
2019-01-24T12:54:00.493Z,51.07
2019-01-24T12:55:04.971Z,51.01
2019-01-24T12:56:08.579Z,50.98
2019-01-24T12:57:12.127Z,50.88
2019-01-24T12:58:15.589Z,50.86
2019-01-24T12:59:19.183Z,50.82
2019-01-24T13:00:36.551Z,50.81
2019-01-24T13:01:40.187Z,50.84
2019-01-24T13:02:43.697Z,50.85
2019-01-24T13:03:47.418Z,50.83
2019-01-24T13:04:50.887Z,50.84
2019-01-24T13:05:54.398Z,50.90
2019-01-24T13:06:57.886Z,50.96
2019-01-24T13:08:01.573Z,51.02
2019-01-24T13:09:07.136Z,51.07
2019-01-24T13:10:16.534Z,51.11
2019-01-24T13:11:20.039Z,51.15
2019-01-24T13:12:23.542Z,51.11
2019-01-24T13:13:27.061Z,51.11
2019-01-24T13:14:30.569Z,51.03
2019-01-24T13:15:34.478Z,50.98
2019-01-24T13:16:37.982Z,50.90
2019-01-24T13:17:41.493Z,50.85
2019-01-24T13:18:45.043Z,50.86
2019-01-24T13:19:48.546Z,50.76
2019-01-24T13:20:53.443Z,50.75
2019-01-24T13:21:56.903Z,50.77
2019-01-24T13:23:01.077Z,50.79
2019-01-24T13:24:05.104Z,50.80
2019-01-24T13:25:12.316Z,50.83
2019-01-24T13:26:16.100Z,50.86
2019-01-24T13:27:19.905Z,50.92
2019-01-24T13:28:23.413Z,50.95
2019-01-24T13:29:26.886Z,51.03
2019-01-24T13:30:32.446Z,51.07
2019-01-24T13:31:36.047Z,51.07
2019-01-24T13:32:39.676Z,51.04
2019-01-24T13:33:43.202Z,51.06
2019-01-24T13:34:46.739Z,51.05
2019-01-24T13:35:50.356Z,50.97
2019-01-24T13:36:53.885Z,50.87
2019-01-24T13:37:57.626Z,50.82
2019-01-24T13:39:01.272Z,50.81
2019-01-24T13:40:10.188Z,50.80
2019-01-24T13:41:13.921Z,50.76
2019-01-24T13:42:17.587Z,50.79